Date,TemperatureHighF,TemperatureAvgF,TemperatureLowF,DewpointHighF,DewpointAvgF,DewpointLowF,HumidityHigh,HumidityAvg,HumidityLow,PressureMaxIn,PressureMinIn,WindSpeedMaxMPH,WindSpeedAvgMPH,GustSpeedMaxMPH,PrecipitationSumIn
2014-1-1,50.5,43.9,38.8,50.3,43.7,38.6,99,99,99,29.17,28.57,17,6,17,0.40
2014-1-2,50.9,45.9,44.1,47.7,44.9,43.1,99,96,80,29.05,28.69,17,6,17,0.21
2014-1-3,48.2,45.5,43.5,46.7,43.6,40.6,99,93,79,29.02,28.74,22,10,24,0.21
2014-1-4,45.7,42.5,39.4,44.3,41.3,39.1,99,96,79,29.12,28.91,21,4,22,0.05
2014-1-5,50.0,42.4,37.4,49.7,41.9,37.1,99,98,89,29.25,28.77,17,7,25,0.61
2014-1-6,51.1,47.8,44.2,49.2,46.8,44.0,99,96,82,28.96,28.76,19,8,21,0.33
2014-1-7,50.7,48.0,46.4,48.5,46.7,45.2,99,95,83,29.36,28.96,21,9,21,0.06
2014-1-8,49.5,45.8,41.4,49.2,45.6,41.1,99,99,98,29.64,29.34,20,5,22,0.54
2014-1-9,45.9,42.9,38.8,45.6,42.7,38.6,99,99,98,29.59,29.24,15,6,15,0.21
2014-1-10,47.7,44.1,41.2,46.9,43.8,40.9,99,99,96,29.62,29.53,10,4,11,0.26
2014-1-11,46.8,40.9,34.2,44.7,40.1,33.9,99,97,84,30.00,29.60,11,2,11,0.07
2014-1-12,44.8,38.6,33.1,44.5,38.3,32.8,99,99,95,29.98,29.33,14,5,17,0.14
2014-1-13,48.4,42.2,37.8,45.1,41.7,37.5,99,98,84,29.40,29.21,8,3,11,0.28
2014-1-14,46.0,41.7,39.9,43.8,40.9,39.1,99,97,83,29.42,29.23,10,4,13,0.21
2014-1-15,53.1,46.6,41.4,52.8,46.3,41.1,99,99,99,29.23,28.97,11,4,13,0.52
2014-1-16,46.8,42.9,39.6,46.5,42.6,39.3,99,99,99,28.98,28.77,9,3,13,0.05
2014-1-17,47.7,42.6,39.7,47.4,42.3,39.5,99,99,94,29.05,28.76,11,4,15,0.07
2014-1-18,49.6,44.4,38.1,49.2,44.2,37.9,99,99,97,29.05,28.89,13,4,15,0.24
2014-1-19,46.9,41.8,38.1,46.7,41.5,37.9,99,99,92,29.31,28.95,8,2,10,0.07
2014-1-20,46.0,39.7,36.0,45.8,39.5,35.7,99,99,99,29.65,29.31,8,2,8,0.00
2014-1-21,43.2,39.5,36.0,42.9,39.2,35.7,99,99,99,29.64,29.34,13,4,15,0.09
2014-1-22,44.2,43.9,43.5,44.0,43.6,43.3,99,99,99,29.59,29.59,6,3,9,0.02
2014-1-23,45.3,42.3,36.3,43.8,40.9,36.1,99,95,79,29.73,29.48,20,7,21,0.44
2014-1-24,47.5,41.5,36.9,47.2,41.2,36.6,99,99,99,29.71,29.52,11,5,17,0.66
2014-1-25,48.6,45.1,41.9,48.3,43.9,39.1,99,96,85,29.69,29.39,23,8,24,21.07
2014-1-26,46.0,42.0,38.8,45.6,39.4,34.0,99,91,68,29.68,28.89,21,9,27,1.05
2014-1-27,47.8,43.0,40.3,46.0,42.2,37.5,99,97,87,28.89,28.69,18,8,21,0.81
2014-1-28,44.4,42.1,40.3,44.2,41.8,40.0,99,99,99,28.91,28.60,8,3,10,0.15
2014-1-29,45.3,41.8,37.9,45.1,40.9,35.9,99,96,89,29.48,28.91,10,3,12,0.02
2014-1-30,38.8,37.4,36.7,37.5,35.5,32.7,99,93,79,29.50,29.44,8,2,8,0.01
2014-1-31,42.8,38.9,33.3,42.5,38.6,33.0,99,99,99,29.46,28.61,17,6,21,2.24
2014-2-1,46.4,41.9,34.0,45.4,40.4,33.2,99,95,74,28.92,28.58,23,10,27,6.96
2014-2-2,49.5,44.8,41.2,44.2,42.7,40.1,99,93,70,29.45,28.92,15,7,22,0.46
2014-2-3,46.6,43.5,40.8,43.1,40.9,37.3,99,91,79,29.42,29.12,16,8,22,0.57
2014-2-4,48.6,42.2,36.1,43.4,39.8,35.9,99,91,73,29.15,28.69,19,6,21,0.27
2014-2-5,46.6,44.5,42.8,46.3,43.3,40.5,99,96,83,28.70,28.30,19,9,21,1.83
2014-2-6,47.7,44.4,40.1,46.5,43.8,39.8,99,98,90,29.01,28.69,17,5,18,0.64
2014-2-7,48.4,42.9,40.3,46.9,41.1,36.9,99,94,76,29.06,28.59,15,5,17,0.45
2014-2-8,45.3,43.2,39.0,45.1,42.1,37.3,99,96,83,28.59,28.14,24,9,24,1.19
2014-2-9,47.1,44.6,40.8,45.6,42.8,37.9,99,94,80,28.90,28.27,22,10,24,0.94
2014-2-10,49.3,38.5,31.1,42.0,37.3,30.9,99,96,68,29.22,28.90,10,2,11,0.18
2014-2-11,45.3,40.4,35.4,42.7,35.3,28.7,99,83,57,29.21,28.88,21,9,22,2.68
2014-2-12,51.1,41.2,36.0,46.1,38.4,32.4,99,90,67,29.16,28.22,36,13,44,23.19
2014-2-13,46.2,42.5,39.2,42.0,37.4,32.7,99,82,69,29.11,28.67,24,12,27,0.04
2014-2-14,54.5,42.7,37.9,54.2,41.8,37.7,99,97,86,29.14,28.15,17,7,21,0.35
2014-2-15,50.0,43.2,39.6,49.7,42.2,39.3,99,96,85,29.27,28.15,24,10,24,0.59
2014-2-16,50.9,43.6,38.7,42.9,39.0,35.7,97,84,61,29.47,29.27,15,5,16,0.00
2014-2-17,48.0,44.1,38.8,47.8,43.8,37.7,99,99,94,29.44,29.36,11,5,13,0.21
2014-2-18,52.3,46.0,43.7,50.1,45.5,43.4,99,98,85,29.53,29.43,9,3,10,0.05
2014-2-19,55.2,47.9,44.4,51.5,47.0,44.2,99,97,82,29.61,29.32,10,4,11,0.14
2014-2-20,51.1,46.8,42.4,50.8,46.3,39.2,99,98,84,29.32,29.03,17,7,22,0.14
2014-2-21,49.8,44.5,41.7,45.2,41.2,38.4,99,88,74,29.24,29.14,21,10,25,0.12
2014-2-22,52.2,46.4,43.5,47.4,44.3,41.2,99,93,67,29.47,29.24,21,8,21,0.00
2014-2-23,53.2,49.5,45.3,51.7,48.7,45.1,99,97,85,29.37,29.25,20,8,22,0.98
2014-2-24,55.4,48.1,41.4,50.5,45.2,41.1,99,90,64,29.33,29.08,18,7,18,0.38
2014-2-25,51.6,45.9,41.4,46.9,43.6,40.0,99,92,66,29.34,29.06,17,7,17,0.08
2014-2-26,50.7,45.5,43.3,47.0,42.9,38.9,99,91,77,29.62,29.34,15,8,19,0.02
2014-2-27,51.3,44.7,36.1,45.4,42.6,35.9,99,93,73,29.45,29.25,15,7,17,0.53
2014-2-28,49.6,39.7,32.9,44.9,38.3,32.7,99,95,73,29.46,29.26,7,2,9,0.02
2014-3-1,52.2,42.0,34.2,47.2,38.3,30.4,99,88,48,29.44,29.18,9,2,9,0.52
2014-3-2,52.2,45.0,41.4,51.9,44.7,41.1,99,99,99,29.16,28.66,14,4,14,0.41
2014-3-3,53.6,43.8,34.3,45.9,40.8,34.1,99,90,60,29.18,28.67,6,2,7,0.00
2014-3-4,51.8,44.7,39.0,50.1,43.3,38.8,99,95,79,29.65,29.17,11,4,12,0.15
2014-3-5,52.9,46.8,42.1,48.0,45.3,41.8,99,95,81,29.91,29.65,11,4,11,0.01
2014-3-6,54.3,49.8,45.0,54.1,49.5,44.7,99,99,99,29.91,29.72,14,5,15,0.07
2014-3-7,52.3,47.2,36.3,52.1,43.7,35.4,99,89,57,30.14,29.63,17,6,17,0.66
2014-3-8,57.0,47.7,36.9,50.6,43.5,34.4,99,86,67,30.13,29.78,17,6,19,0.00
2014-3-9,61.9,51.0,44.2,53.4,47.0,39.1,99,87,66,29.99,29.81,7,3,13,0.00
2014-3-10,55.4,47.1,38.1,48.1,43.2,36.6,99,88,59,30.39,29.98,11,3,12,0.06
2014-3-11,59.2,45.1,32.4,40.9,35.0,28.7,99,72,32,30.43,30.36,8,2,11,0.00
2014-3-12,60.4,43.9,34.5,45.9,38.6,33.2,99,83,49,30.38,30.25,8,2,8,0.00
2014-3-13,43.5,40.5,37.0,43.3,40.2,36.8,99,99,99,30.30,30.24,4,1,6,0.00
2014-3-14,50.0,43.4,37.0,49.7,43.2,36.8,99,99,99,30.24,30.03,15,6,17,0.00
2014-3-15,52.5,48.3,46.0,51.9,48.0,45.8,99,99,89,30.16,30.07,16,8,18,0.00
2014-3-16,52.7,47.1,41.4,52.4,46.8,41.1,99,99,99,30.10,29.97,15,7,17,0.00
2014-3-17,53.4,48.9,46.0,51.2,47.7,45.8,99,96,82,29.97,29.88,12,7,14,0.00
2014-3-18,51.3,48.5,45.9,51.0,48.2,45.6,99,99,99,29.87,29.58,19,8,21,0.70
2014-3-19,56.7,50.3,46.9,50.7,48.2,46.7,99,93,77,29.86,29.67,17,8,21,0.00
2014-3-20,52.9,47.2,43.7,49.7,45.0,39.4,99,92,74,29.67,29.20,21,9,23,0.85
2014-3-21,54.1,46.2,39.7,42.9,40.7,37.7,99,82,60,29.37,29.10,15,8,18,0.46
2014-3-22,46.6,42.6,37.8,44.1,39.5,34.5,99,89,71,29.28,29.10,17,9,20,0.40
2014-3-23,51.4,44.9,34.7,43.1,38.5,32.6,99,79,54,29.74,29.28,17,6,19,0.00
2014-3-24,54.7,43.3,30.6,42.4,32.2,25.7,99,69,33,29.74,29.42,17,6,20,0.38
2014-3-25,50.5,44.2,42.3,50.3,43.8,39.8,99,98,86,29.91,29.41,16,2,17,0.15
2014-3-26,52.9,43.6,33.3,45.7,36.3,24.1,99,78,44,30.00,29.72,11,3,14,0.01
2014-3-27,54.0,43.0,36.1,45.2,39.7,35.9,99,89,54,29.82,29.67,8,3,10,0.45
2014-3-28,56.7,46.2,39.2,50.6,44.3,38.9,99,94,74,29.87,29.81,10,3,14,0.59
2014-3-29,61.3,50.3,44.1,51.6,47.2,43.8,99,90,67,29.83,29.70,16,5,16,0.00
2014-3-30,68.0,54.4,46.6,52.8,49.1,45.5,99,84,55,29.73,29.67,8,4,11,0.00
2014-3-31,63.0,52.4,44.6,54.2,49.6,44.3,99,91,66,29.71,29.62,8,4,11,0.44
2014-4-1,58.8,50.1,44.1,52.2,48.4,43.8,99,94,75,29.67,29.57,7,2,8,0.43
2014-4-2,54.7,49.3,44.2,51.5,48.6,44.0,99,98,85,29.58,29.36,12,5,21,0.05
2014-4-3,53.8,49.0,46.2,53.5,48.7,46.0,99,99,95,29.44,29.35,11,4,12,0.00
2014-4-4,56.1,49.6,45.0,54.4,48.9,44.7,99,98,88,29.60,29.42,11,2,11,0.00
2014-4-5,59.9,53.1,44.6,59.6,52.9,44.3,99,99,98,29.60,29.51,11,4,13,0.00
2014-4-6,59.7,55.0,48.6,59.5,54.1,47.4,99,97,78,29.57,29.43,16,6,17,0.00
2014-4-7,52.5,47.4,45.5,50.9,47.0,45.2,99,99,90,29.59,29.36,14,3,17,0.00
2014-4-8,54.9,48.3,43.9,48.7,45.1,41.6,99,89,72,30.00,29.47,17,9,21,0.00
2014-4-9,59.9,51.9,47.8,52.0,49.8,47.6,99,93,71,30.04,29.99,12,6,14,0.00
2014-4-10,59.5,52.1,48.7,52.0,48.7,45.0,99,89,67,29.99,29.93,11,4,11,0.00
2014-4-11,55.8,49.9,44.1,48.9,45.1,40.7,99,84,65,30.03,29.91,10,4,11,0.00
2014-4-12,55.2,50.0,47.3,53.2,47.8,43.5,99,92,81,29.91,29.75,17,7,19,0.00
2014-4-13,55.6,49.9,47.7,49.5,45.1,40.3,99,84,70,29.99,29.87,17,8,21,0.00
2014-4-14,57.0,50.9,43.2,48.4,46.0,42.9,99,84,66,30.17,29.94,13,5,14,0.00
2014-4-15,66.0,51.7,37.8,46.6,36.6,26.2,99,64,24,30.24,30.14,9,2,12,0.00
2014-4-16,64.4,51.4,40.6,46.8,39.7,34.6,97,67,33,30.16,29.94,9,3,11,0.00
2014-4-17,54.7,50.5,46.6,53.2,47.7,41.7,99,90,73,29.94,29.84,17,8,17,0.00
2014-4-18,59.4,48.9,36.1,49.8,38.5,32.8,99,71,39,30.02,29.92,8,2,11,0.00
2014-4-19,61.0,48.4,37.0,42.9,37.5,34.7,99,69,39,29.97,29.87,13,3,13,0.00
2014-4-20,60.8,50.4,38.7,49.6,44.7,38.4,99,82,59,29.89,29.54,14,4,14,0.00
2014-4-21,72.5,58.2,49.5,54.8,50.7,44.3,99,78,47,29.59,29.54,12,4,13,0.00
2014-4-22,57.9,52.4,48.0,56.6,51.4,44.2,99,96,81,29.63,29.51,11,2,11,0.00
2014-4-23,63.7,53.5,47.7,57.6,51.8,47.4,99,94,71,29.84,29.63,11,4,16,0.00
2014-4-24,65.3,54.1,43.2,56.7,48.9,42.9,99,84,57,29.92,29.84,9,2,9,0.00
2014-4-25,61.7,51.3,45.7,52.9,49.8,45.4,99,95,70,29.85,29.46,8,2,10,0.00
2014-4-26,65.5,53.7,46.8,55.1,47.1,39.9,99,81,42,29.46,29.30,15,5,15,0.00
2014-4-27,68.2,54.5,45.3,52.3,48.8,45.1,99,83,47,29.65,29.40,10,3,13,0.00
2014-4-28,66.2,56.1,48.9,56.2,51.2,48.7,99,85,59,29.71,29.63,6,2,8,0.00
2014-4-29,72.1,58.6,48.2,57.5,53.5,47.9,99,84,56,29.72,29.68,6,2,9,0.00
2014-4-30,66.4,55.5,51.4,62.2,54.4,51.2,99,96,77,29.70,29.60,8,2,8,0.00
2014-5-1,57.7,51.0,45.7,55.3,49.7,44.6,99,96,79,29.92,29.56,10,2,10,0.00
2014-5-2,63.3,51.9,43.2,46.5,39.8,32.8,99,68,34,30.22,29.92,7,2,8,0.00
2014-5-3,59.5,49.6,39.4,48.4,38.9,33.9,87,68,41,30.24,30.06,8,2,10,0.00
2014-5-4,58.5,53.3,49.6,54.6,50.3,47.6,99,90,75,30.06,29.80,6,2,10,0.00
2014-5-5,61.0,53.5,44.6,52.6,48.0,44.3,99,83,59,29.80,29.37,11,4,13,0.00
2014-5-6,65.1,56.5,49.6,55.3,50.6,47.9,99,82,56,29.44,29.35,11,5,14,0.00
2014-5-7,57.4,53.2,50.0,55.3,51.6,48.5,99,95,73,29.50,29.34,14,7,18,0.00
2014-5-8,60.6,53.3,50.7,54.6,52.0,50.5,99,96,70,29.51,29.38,20,4,23,0.00
2014-5-9,62.1,53.1,46.8,54.2,51.3,46.5,99,94,71,29.60,29.40,18,8,24,0.00
2014-5-10,59.2,52.3,47.1,58.6,51.9,46.9,99,99,91,29.55,29.07,16,6,16,0.00
2014-5-11,56.3,52.4,49.6,55.5,52.0,49.4,99,98,92,29.46,29.11,16,9,18,0.00
2014-5-12,60.6,53.6,48.2,53.4,50.5,44.9,99,90,65,29.70,29.46,11,4,11,0.00
2014-5-13,62.4,54.1,46.9,58.9,50.9,46.7,99,90,70,30.11,29.70,10,3,11,0.00
2014-5-14,63.7,56.3,49.5,53.7,50.4,44.6,99,82,53,30.36,30.10,10,4,11,0.00
2014-5-15,66.0,57.0,51.4,62.2,54.7,51.2,99,93,69,30.41,30.35,6,2,8,0.00
2014-5-16,70.5,59.0,47.3,61.1,52.7,47.0,99,81,57,30.38,30.13,8,2,9,0.00
2014-5-17,72.1,61.7,51.6,58.7,50.9,45.2,99,71,41,30.14,29.80,11,3,13,0.00
2014-5-18,73.8,60.2,51.1,56.3,51.6,42.9,99,75,49,29.80,29.50,9,3,14,0.00
2014-5-19,81.1,62.6,48.6,60.1,54.0,42.7,99,77,37,29.50,29.35,11,3,15,0.00
2014-5-20,74.8,61.7,54.5,63.7,57.7,54.2,99,88,58,29.58,29.42,8,3,9,0.00
2014-5-21,66.2,58.4,52.7,59.1,51.6,43.4,99,80,47,29.62,29.48,10,3,11,0.00
2014-5-22,59.0,53.0,48.2,55.6,50.6,46.7,99,92,71,29.52,29.34,6,2,11,0.00
2014-5-23,61.2,52.1,47.1,54.4,50.4,46.9,99,94,74,29.57,29.48,14,4,14,0.00
2014-5-24,64.6,55.2,49.8,59.5,53.4,49.6,99,94,72,29.65,29.55,11,3,14,0.50
2014-5-25,66.6,52.0,48.9,59.3,51.2,48.7,99,97,68,29.82,29.64,5,1,5,0.12
2014-5-26,71.2,62.2,47.7,57.7,53.8,47.4,99,75,53,29.89,29.82,7,3,8,0.01
2014-5-27,71.1,59.7,51.8,60.4,52.8,45.2,99,80,44,29.87,29.83,6,1,8,0.00
2014-5-28,61.3,54.9,51.6,59.3,53.7,47.1,99,96,84,29.84,29.78,8,3,10,0.08
2014-5-29,57.4,53.4,50.0,56.4,52.9,49.7,99,98,92,30.01,29.82,7,2,8,0.08
2014-5-30,64.8,56.7,49.8,53.9,50.6,49.0,99,81,58,30.09,30.00,6,2,8,0.00
2014-5-31,66.9,59.1,50.9,56.8,52.3,48.5,99,79,56,30.09,30.04,10,3,11,0.00
2014-6-1,74.1,60.2,48.7,62.0,54.8,48.5,99,85,50,30.04,29.89,8,2,9,0.00
2014-6-2,69.1,59.7,52.7,64.8,58.0,52.4,99,95,76,29.89,29.73,8,2,8,0.01
2014-6-3,65.7,57.8,50.9,56.9,54.0,49.7,99,88,60,29.74,29.57,11,3,11,0.00
2014-6-4,61.9,55.4,50.4,58.2,53.6,50.1,99,94,79,29.57,29.39,19,4,19,0.01
2014-6-5,61.7,54.6,50.9,57.2,52.5,48.8,99,93,68,29.70,29.44,17,8,17,0.07
2014-6-6,72.3,61.4,43.5,57.3,50.7,43.3,99,71,44,29.73,29.63,9,3,11,0.00
2014-6-7,71.1,60.1,55.4,64.8,56.7,51.1,99,89,67,29.73,29.57,11,3,11,0.20
2014-6-8,75.0,62.7,54.0,61.3,56.1,53.3,99,82,50,29.87,29.72,13,3,13,0.07
2014-6-9,77.4,61.0,53.4,68.5,58.7,53.2,99,93,60,29.87,29.70,8,2,11,0.14
2014-6-10,69.6,60.9,54.9,64.7,57.3,53.0,99,89,61,29.84,29.68,12,2,12,0.11
2014-6-11,66.7,60.4,55.9,62.4,58.4,55.7,99,93,74,30.18,29.84,11,4,12,0.00
2014-6-12,70.9,62.4,51.4,63.8,56.2,51.2,99,81,62,30.19,30.14,6,2,8,0.00
2014-6-13,73.2,61.9,53.6,61.6,58.1,53.3,99,88,60,30.14,30.06,6,2,8,0.00
2014-6-14,74.3,65.1,56.7,66.0,61.6,56.4,99,89,69,30.16,30.07,8,3,10,0.00
2014-6-15,70.5,62.2,58.8,67.4,61.4,58.6,99,97,82,30.21,30.14,6,2,8,0.00
2014-6-16,73.2,63.1,54.5,62.1,55.7,50.0,99,79,46,30.23,30.18,10,2,11,0.02
2014-6-17,76.5,66.4,55.9,63.2,58.9,52.9,99,78,59,30.23,30.15,8,2,8,0.00
2014-6-18,77.9,67.0,59.9,67.4,63.5,59.6,99,90,59,30.18,30.03,9,3,11,0.00
2014-6-19,77.2,64.6,57.9,65.6,59.7,57.7,99,86,57,30.04,30.00,13,4,14,0.00
2014-6-20,65.5,58.8,52.5,60.9,57.1,52.3,99,95,75,30.01,29.98,8,2,9,0.00
2014-6-23,71.1,66.3,59.9,62.3,60.6,58.3,99,83,66,30.01,29.97,10,5,13,0.00
2014-6-24,71.4,63.6,57.4,63.4,60.1,57.1,99,89,71,29.98,29.90,11,3,11,0.00
2014-6-25,68.9,61.4,55.4,60.4,56.6,53.3,99,85,63,29.92,29.81,7,2,9,0.00
2014-6-26,69.6,61.5,54.7,58.7,54.0,50.7,99,79,52,29.81,29.72,11,3,11,0.00
2014-6-27,67.8,57.6,52.2,57.3,53.4,48.1,99,87,60,29.73,29.65,9,2,9,0.05
2014-6-28,62.2,55.9,51.1,57.7,53.5,50.8,99,92,72,29.70,29.65,5,1,8,0.05
2014-6-29,69.3,59.3,45.9,60.0,49.8,43.6,99,74,41,29.83,29.69,11,3,13,0.02
2014-6-30,76.5,63.7,50.0,56.0,49.4,43.4,99,63,32,29.87,29.81,8,2,8,0.00
2014-7-1,79.0,66.4,51.3,58.0,50.8,42.8,99,62,30,29.97,29.87,11,2,11,0.00
2014-7-2,72.7,64.6,53.6,62.1,57.5,51.4,99,79,56,29.97,29.84,13,4,16,0.00
2014-7-3,69.8,64.0,61.2,65.3,62.3,59.3,99,94,76,29.85,29.64,14,6,16,0.00
2014-7-4,65.5,62.1,58.6,64.6,61.5,58.4,99,98,86,29.64,29.25,12,4,14,0.46
2014-7-5,68.5,59.8,52.3,57.8,52.8,45.1,99,79,45,29.43,29.22,11,4,11,0.30
2014-7-6,70.9,59.3,47.1,58.4,52.6,46.9,99,80,57,29.56,29.41,10,3,15,0.00
2014-7-7,71.8,63.1,58.1,58.3,54.7,48.5,98,75,47,29.79,29.56,9,4,11,0.00
2014-7-8,70.0,61.7,53.8,61.4,57.1,53.2,99,86,59,29.91,29.77,11,3,17,0.04
2014-7-9,69.8,64.3,58.1,63.1,60.3,57.8,99,88,71,29.96,29.90,12,5,15,0.00
2014-7-10,75.4,65.1,53.6,65.4,57.6,50.9,99,78,43,29.93,29.88,10,3,11,0.00
2014-7-11,73.2,64.3,52.7,67.1,59.9,52.4,99,87,65,29.91,29.83,8,2,8,0.00
2014-7-12,78.4,66.3,55.2,68.9,62.1,55.0,99,88,56,29.84,29.55,8,2,8,0.02
2014-7-13,68.9,64.1,59.5,65.4,58.4,51.0,99,83,56,29.66,29.50,11,5,14,0.09
2014-7-14,70.7,63.6,55.4,65.8,60.5,53.9,99,90,68,29.67,29.58,14,4,14,0.01
2014-7-15,73.4,64.3,58.3,60.2,56.3,48.0,99,77,51,29.92,29.66,9,3,10,0.00
2014-7-16,71.1,62.7,55.4,68.6,60.6,52.1,99,93,79,29.91,29.82,14,3,14,0.12
2014-7-17,78.4,72.5,64.2,67.6,62.7,57.8,99,72,53,29.96,29.85,8,3,8,0.00
2014-7-18,79.5,69.2,61.2,70.5,65.7,60.8,99,90,68,29.85,29.59,13,5,17,0.02
2014-7-19,73.0,66.2,61.3,72.8,65.9,61.1,99,99,99,29.64,29.50,10,2,11,0.14
2014-7-20,71.8,65.0,61.3,71.0,64.7,61.1,99,99,93,29.78,29.55,8,3,11,0.00
2014-7-21,77.9,68.2,60.3,69.8,63.4,59.6,99,86,55,30.00,29.78,8,2,9,0.00
2014-7-22,82.4,70.9,55.2,68.9,62.5,55.0,99,77,51,30.05,29.99,7,2,8,0.00
2014-7-23,88.0,74.0,59.0,68.1,63.1,56.0,99,73,39,30.04,29.90,9,3,9,0.00
2014-7-24,89.8,75.0,59.7,67.4,62.3,57.7,99,69,39,29.94,29.85,8,2,11,0.00
2014-7-25,91.6,76.5,58.6,70.0,61.0,57.4,99,64,33,29.92,29.82,7,2,8,0.00
2014-7-26,86.0,70.3,59.9,69.9,63.7,59.3,99,82,45,29.87,29.78,9,3,11,0.18
2014-7-27,70.2,63.6,59.9,64.6,61.3,59.5,99,93,75,29.84,29.78,12,6,14,0.00
2014-7-28,77.0,65.9,57.6,68.6,62.5,57.3,99,90,63,29.87,29.76,9,3,9,0.01
2014-7-29,70.9,63.7,59.9,66.2,62.0,58.1,99,94,74,29.87,29.79,12,4,12,0.00
2014-7-30,69.3,63.7,60.8,64.9,61.9,57.3,99,94,75,29.80,29.70,15,6,17,0.00
2014-7-31,72.9,65.4,61.0,65.3,62.7,59.5,99,92,68,29.71,29.57,14,5,14,0.18
2014-8-1,65.3,61.6,58.1,65.0,61.3,57.8,99,99,99,29.58,29.43,9,2,11,0.37
2014-8-2,76.8,62.4,58.8,70.8,61.6,58.6,99,97,69,29.44,29.26,12,3,14,0.18
2014-8-3,66.0,60.2,54.7,64.1,59.4,54.4,99,98,89,29.60,29.33,18,7,21,0.08
2014-8-4,73.0,63.6,55.2,60.8,56.8,51.2,99,81,50,29.83,29.60,11,4,14,0.00
2014-8-5,76.1,64.4,52.9,67.7,59.6,52.0,99,86,52,29.83,29.62,12,3,13,0.00
2014-8-6,72.7,64.8,59.9,69.4,64.2,59.6,99,98,85,29.67,29.52,12,5,14,0.09
2014-8-7,76.8,64.0,54.3,67.0,56.8,50.9,99,80,50,29.78,29.66,8,2,10,0.22
2014-8-8,75.9,61.9,51.4,66.2,57.7,49.8,98,87,64,29.77,29.42,8,2,11,0.00
2014-8-9,71.6,63.9,60.1,62.5,59.2,55.7,99,85,61,29.48,29.38,17,6,17,0.09
2014-8-10,66.7,57.8,54.9,65.9,57.5,54.6,99,99,93,29.44,29.04,24,6,27,0.27
2014-8-11,68.9,62.2,58.3,60.5,58.8,56.6,99,89,69,29.40,29.24,27,12,27,0.02
2014-8-12,69.8,61.7,57.6,60.5,57.5,53.2,99,87,63,29.40,29.32,20,9,20,0.00
2014-8-13,67.5,61.9,58.6,64.5,60.6,58.1,99,96,83,29.52,29.31,16,8,19,0.00
2014-8-14,68.7,60.7,54.3,62.8,58.6,54.1,99,93,72,29.68,29.51,10,3,11,0.09
2014-8-15,70.3,60.5,52.0,66.3,55.6,50.5,99,85,63,29.92,29.68,11,3,13,0.00
2014-8-16,63.7,60.1,57.9,61.1,57.2,51.8,99,90,73,29.92,29.63,17,9,22,0.00
2014-8-17,63.5,59.1,54.5,60.2,56.3,51.7,99,91,67,29.64,29.42,23,12,26,0.12
2014-8-18,67.6,60.0,55.2,58.3,53.8,48.0,99,81,60,29.64,29.42,15,6,21,0.06
2014-8-19,65.1,58.3,49.5,54.5,50.3,46.1,99,76,51,29.79,29.62,14,5,14,0.13
2014-8-20,69.6,59.6,50.2,61.8,51.5,48.0,99,76,53,29.83,29.77,11,3,11,0.01
2014-8-21,62.2,57.8,52.9,59.6,54.1,47.4,99,88,69,29.79,29.53,18,7,18,0.18
2014-8-22,68.0,58.5,51.3,60.4,52.0,47.4,99,81,57,29.71,29.53,11,4,13,0.05
2014-8-23,66.2,57.6,49.8,62.2,51.7,47.2,99,82,60,29.85,29.68,11,4,13,0.11
2014-8-24,68.7,60.0,53.2,53.0,48.6,43.7,97,68,42,29.85,29.73,8,2,8,0.05
2014-8-25,60.8,56.7,53.8,59.1,55.6,51.5,99,96,88,29.73,29.39,13,4,15,0.12
2014-8-26,72.0,60.4,50.0,60.2,53.7,49.0,99,81,47,29.79,29.40,13,4,13,0.02
2014-8-27,72.9,59.8,44.4,60.9,52.9,44.2,99,80,49,29.82,29.53,11,4,16,0.00
2014-8-28,73.4,64.0,57.4,67.6,59.9,55.0,99,88,55,29.55,29.48,11,4,14,0.06
2014-8-29,66.4,60.5,57.2,65.2,60.2,56.9,99,99,93,29.55,29.44,17,6,21,0.08
2014-8-30,64.8,60.3,57.9,63.2,60.0,57.7,99,99,92,29.78,29.54,15,7,15,0.00
2014-8-31,69.4,60.4,56.8,62.7,58.6,56.6,99,94,65,29.86,29.77,9,4,10,0.01
2014-9-1,69.6,61.8,56.1,62.1,57.7,53.7,99,87,61,30.00,29.81,8,4,8,0.05
2014-9-2,77.0,63.5,51.3,65.6,57.0,51.0,99,82,49,30.05,29.99,5,1,5,0.00
2014-9-3,76.5,64.7,54.7,65.6,59.8,54.4,99,86,52,30.03,29.95,6,2,6,0.00
2014-9-4,79.0,66.7,56.5,64.4,61.5,56.2,99,85,55,29.96,29.85,5,2,5,0.00
2014-9-5,76.3,64.1,53.4,67.2,60.9,53.1,99,91,61,29.86,29.76,6,2,6,0.00
2014-9-6,68.5,61.7,57.2,63.5,58.6,54.8,99,90,77,29.77,29.73,8,4,13,0.01
2014-9-7,69.6,60.7,51.4,58.3,54.7,51.2,99,83,55,29.87,29.77,8,3,9,0.00
2014-9-8,67.3,58.7,51.4,57.1,52.7,49.3,99,82,56,29.97,29.85,8,2,9,0.00
2014-9-9,69.3,57.1,49.5,61.4,52.9,49.2,99,87,57,29.99,29.95,6,2,7,0.00
2014-9-10,80.6,62.4,47.5,63.1,55.3,47.2,99,81,47,29.98,29.91,8,2,8,0.00
2014-9-11,77.0,62.2,51.6,60.7,56.6,51.4,99,84,52,30.03,29.95,9,2,9,0.00
2014-9-12,71.2,59.0,49.1,61.8,53.5,48.8,99,84,53,30.12,30.03,8,2,8,0.00
2014-9-13,79.7,61.6,50.0,63.6,56.1,49.7,99,85,47,30.16,30.12,6,2,6,0.00
2014-9-14,69.4,58.1,49.3,60.7,55.4,49.0,99,91,69,30.16,29.99,6,2,9,0.00
2014-9-15,75.0,59.1,48.2,69.7,58.3,47.9,99,97,73,30.00,29.79,8,1,8,0.04
2014-9-16,77.5,63.5,54.3,67.7,60.1,54.1,99,90,61,29.82,29.73,6,2,8,0.00
2014-9-17,78.4,63.7,52.5,64.3,59.1,52.3,99,87,57,29.78,29.68,6,2,8,0.00
2014-9-18,75.0,64.9,57.2,68.3,63.1,56.9,99,94,78,29.70,29.62,8,2,8,0.00
2014-9-19,75.6,63.2,54.0,68.3,60.6,53.7,99,92,68,29.75,29.65,6,2,8,0.00
2014-9-20,68.4,61.1,51.3,67.2,60.5,51.0,99,98,90,30.01,29.74,7,1,9,0.00
2014-9-21,73.2,57.5,43.9,67.8,51.1,43.6,99,82,48,30.14,30.01,6,1,8,0.00
2014-9-22,71.2,56.8,46.2,63.2,55.1,46.0,99,94,68,30.14,29.97,9,3,10,0.00
2014-9-23,62.6,59.4,56.8,62.3,59.1,56.6,99,99,96,29.98,29.69,9,4,14,0.01
2014-9-24,66.7,59.6,55.9,57.8,52.7,44.2,99,79,56,29.83,29.63,14,6,17,0.05
2014-9-25,63.5,60.7,57.2,63.2,59.7,49.7,99,96,76,29.84,29.77,17,6,17,0.00
2014-9-26,69.4,61.0,50.5,62.7,56.5,49.0,99,87,50,30.09,29.80,17,5,18,0.00
2014-9-27,69.6,55.9,45.1,60.9,52.7,44.9,99,90,61,30.09,30.01,10,2,14,0.00
2014-9-28,71.6,59.5,50.7,66.7,58.3,50.5,99,96,73,30.01,29.89,6,1,6,0.00
2014-9-29,77.9,59.9,48.7,70.7,55.9,48.5,99,88,55,29.93,29.86,5,0,5,0.00
2014-9-30,74.8,63.4,54.9,66.2,59.4,54.6,99,88,61,29.94,29.85,9,2,9,0.00
2014-10-1,63.0,58.4,46.9,62.7,56.6,46.7,99,94,76,30.20,29.86,11,4,11,0.07
2014-10-2,69.3,55.2,40.5,53.4,47.9,40.2,99,80,46,30.22,29.97,8,2,8,0.00
2014-10-3,71.2,61.2,52.9,62.2,58.0,52.6,99,90,69,29.97,29.58,11,6,11,0.00
2014-10-4,61.3,55.2,49.6,61.1,50.1,44.1,99,84,61,29.85,29.38,15,5,15,0.40
2014-10-5,63.3,53.2,44.1,53.5,49.9,43.8,99,89,67,29.87,29.50,15,4,15,0.00
2014-10-6,62.6,51.4,43.7,58.4,48.9,43.4,99,92,57,29.50,29.15,20,5,24,0.58
2014-10-7,54.7,47.2,41.9,51.7,46.1,41.6,99,96,81,29.24,29.06,13,3,15,0.14
2014-10-8,59.4,50.0,43.2,57.5,49.6,42.9,99,98,91,29.24,28.92,11,4,16,0.07
2014-10-9,59.5,52.6,48.6,58.4,52.3,48.3,99,99,93,29.30,28.94,15,6,19,0.19
2014-10-10,63.1,54.1,47.1,57.8,52.6,46.9,99,95,70,29.55,29.30,11,4,12,0.00
2014-10-11,64.2,52.0,43.5,59.2,50.2,43.3,99,94,71,29.66,29.54,7,2,8,0.00
2014-10-12,69.3,50.2,42.4,61.5,48.1,42.2,99,93,66,29.71,29.63,4,1,6,0.00
2014-10-13,55.6,49.8,41.7,52.0,48.4,41.5,99,95,83,29.64,29.53,8,3,11,0.00
2014-10-14,58.1,52.2,46.9,52.8,49.8,46.7,99,92,78,29.60,29.55,11,3,12,0.00
2014-10-15,60.4,53.3,48.2,58.3,53.0,47.9,99,99,89,29.59,29.27,9,3,12,0.13
2014-10-16,65.7,55.6,49.3,64.3,55.1,49.0,99,98,86,29.32,29.26,6,2,8,0.04
2014-10-17,68.9,59.2,52.3,65.3,58.5,52.1,99,97,81,29.51,29.32,11,4,15,0.11
2014-10-18,69.3,62.1,58.5,65.7,60.9,58.2,99,96,77,29.49,29.28,15,6,17,0.01
2014-10-19,64.9,59.5,55.9,61.6,58.9,55.7,99,98,87,29.65,29.42,17,8,24,0.00
2014-10-20,57.0,54.9,52.5,56.8,54.6,52.3,99,99,99,29.68,29.38,14,6,17,0.00
2014-10-21,56.7,51.7,45.9,56.4,48.5,38.9,99,89,65,29.90,29.10,30,12,30,0.06
2014-10-22,55.0,53.1,50.5,54.8,51.5,46.2,99,94,80,30.01,29.85,18,8,18,0.00
2014-10-23,58.3,55.9,54.0,58.0,55.4,51.9,99,98,88,29.85,29.63,17,4,17,0.00
2014-10-24,60.8,54.9,51.1,59.8,52.9,47.8,99,93,74,29.67,29.62,11,4,14,0.05
2014-10-25,61.5,55.2,50.5,58.9,54.1,50.3,99,96,80,29.74,29.66,14,6,16,0.00
2014-10-26,59.4,57.1,53.8,58.7,56.1,53.5,99,97,85,29.74,29.69,24,8,24,0.00
2014-10-27,62.6,59.8,57.2,62.3,59.5,56.9,99,99,99,29.74,29.62,14,4,14,0.00
2014-10-28,61.7,54.9,44.2,61.3,54.3,44.0,99,98,86,29.73,29.45,15,5,17,0.24
2014-10-29,60.4,46.6,35.8,52.5,44.3,35.5,99,93,59,29.87,29.73,9,2,9,0.02
2014-10-30,65.3,57.3,49.6,65.0,57.1,49.4,99,99,99,29.77,29.70,10,3,11,0.08
2014-10-31,63.7,60.7,55.8,63.4,60.5,55.5,99,99,99,29.71,29.49,14,5,16,0.14
2014-11-1,60.3,55.7,53.1,58.9,54.6,52.5,99,96,80,29.65,29.32,14,6,18,0.35
2014-11-2,58.1,52.9,46.6,54.6,51.3,46.3,99,95,76,29.35,29.07,13,5,16,0.09
2014-11-3,55.8,47.3,40.6,48.9,45.0,40.4,99,92,66,29.07,28.83,15,4,15,0.43
2014-11-4,58.3,46.4,39.6,56.4,45.3,39.3,99,96,76,29.34,28.88,5,1,9,0.09
2014-11-5,57.6,44.5,34.7,52.1,41.3,34.5,99,90,60,29.60,29.34,6,1,11,0.00
2014-11-6,51.6,45.1,35.2,51.4,44.8,35.0,99,99,99,29.57,28.95,18,7,18,0.08
2014-11-7,53.2,51.6,48.4,53.0,50.9,47.9,99,97,86,29.13,28.82,15,6,19,0.15
2014-11-8,53.8,48.6,43.0,53.5,48.2,42.7,99,99,91,29.22,29.01,17,6,17,0.05
2014-11-9,55.0,45.8,40.5,51.5,45.4,40.2,99,98,84,29.37,29.22,9,2,9,0.00
2014-11-10,54.7,46.5,39.7,54.4,46.2,39.5,99,99,94,29.36,29.14,12,3,14,0.11
2014-11-11,52.7,51.4,46.0,52.4,51.2,45.8,99,99,99,29.15,29.02,14,5,14,0.09
2014-11-12,55.9,50.6,46.0,55.7,50.2,45.8,99,99,89,29.29,28.98,11,4,16,0.02
2014-11-13,57.2,50.9,45.5,56.9,50.6,45.2,99,99,92,29.32,29.06,17,5,23,0.02
2014-11-14,58.3,51.3,42.8,57.8,50.7,42.5,99,98,84,29.29,29.05,16,3,17,0.09
2014-11-15,52.7,46.3,42.4,52.4,46.0,42.2,99,99,99,29.32,29.26,6,1,6,0.01
2014-11-16,56.1,47.8,43.3,55.9,47.6,43.1,99,99,99,29.43,29.29,6,1,7,0.00
2014-11-17,57.9,49.3,44.2,55.5,48.7,44.0,99,98,81,29.59,29.32,10,2,10,0.08
2014-11-18,59.0,48.3,42.8,56.6,47.6,42.5,99,97,84,29.80,29.58,6,1,8,0.01
2014-11-19,56.8,47.6,43.5,55.7,47.0,43.3,99,98,85,30.02,29.77,8,1,8,0.00
2014-11-20,55.9,45.9,41.0,54.1,45.6,40.7,99,99,88,30.08,30.01,5,1,7,0.01
2014-11-21,50.9,44.2,40.3,50.6,43.9,40.0,99,99,99,30.03,29.57,14,3,14,0.27
2014-11-22,56.8,50.5,46.0,56.6,50.2,45.8,99,99,99,29.78,29.52,11,3,13,0.07
2014-11-23,56.3,47.7,45.7,51.7,45.5,40.7,99,92,72,29.96,29.78,7,2,10,0.02
2014-11-24,54.0,47.1,39.6,46.5,43.8,39.3,99,89,69,30.11,29.95,13,3,13,0.00
2014-11-25,51.8,41.7,38.1,49.1,40.5,37.9,99,96,74,30.09,29.89,4,1,7,0.00
2014-11-26,46.0,43.6,40.8,45.8,43.4,40.6,99,99,99,29.89,29.54,3,1,4,0.13
2014-11-27,46.8,43.5,40.1,46.5,43.2,39.8,99,99,99,29.54,29.33,4,1,4,0.00
2014-11-28,54.3,48.2,41.4,54.1,48.0,41.1,99,99,99,29.59,29.39,9,2,9,0.01
2014-11-29,59.0,51.0,48.7,58.7,50.7,48.5,99,99,96,29.67,29.56,7,3,10,0.00
2014-11-30,58.3,48.6,38.3,58.0,48.3,38.0,99,99,98,29.85,29.66,9,2,10,0.01
2014-12-1,52.7,45.1,37.9,52.4,44.8,37.7,99,99,99,29.81,29.71,17,2,17,0.01
2014-12-2,50.4,42.3,30.0,46.9,36.7,29.8,99,82,50,30.19,29.76,14,4,20,0.00
2014-12-3,56.7,36.2,27.9,48.3,34.4,27.6,99,94,61,30.19,30.02,2,0,2,0.00
2014-12-4,43.2,37.5,30.7,42.9,37.2,30.5,99,99,99,30.01,29.78,2,0,3,0.00
2014-12-5,48.4,41.9,37.2,45.4,40.0,36.0,99,93,79,30.09,29.81,13,4,15,0.14
2014-12-6,50.2,42.0,31.1,49.9,41.7,30.9,99,99,94,30.15,29.80,14,4,16,0.01
2014-12-7,50.5,46.0,42.3,50.3,42.3,36.3,99,87,70,29.80,29.63,21,11,24,0.27
2014-12-8,45.5,42.5,38.3,42.9,40.2,36.1,99,91,77,30.10,29.71,16,6,21,0.11
2014-12-9,51.6,43.6,34.7,51.4,43.0,34.5,99,98,79,30.11,29.48,26,7,26,0.15
2014-12-10,46.4,44.8,41.5,44.0,39.7,35.1,99,82,69,29.61,29.42,25,16,33,0.06
2014-12-11,46.0,42.7,38.1,42.7,38.5,32.6,99,85,63,29.42,29.10,29,13,34,0.22
2014-12-12,44.4,40.9,35.2,42.9,38.3,30.8,99,91,64,29.44,28.96,15,5,16,0.20
2014-12-13,47.5,40.7,29.7,44.6,37.9,29.4,99,90,63,29.64,29.44,17,4,72,0.01
2014-12-14,48.0,46.2,42.6,47.8,45.4,40.5,99,97,82,29.55,29.34,17,8,21,0.09
2014-12-15,47.8,44.8,41.9,44.5,41.3,38.0,99,87,77,29.65,29.46,15,7,17,0.02
2014-12-16,48.4,44.4,42.1,48.1,42.9,40.2,99,94,82,29.72,29.30,16,6,18,0.22
2014-12-17,50.9,49.8,48.6,50.6,49.6,48.3,99,99,99,29.43,29.29,15,7,18,0.02
2014-12-18,52.2,50.4,45.7,51.9,50.1,45.4,99,99,99,29.43,29.32,21,10,21,0.14
2014-12-19,47.7,46.3,44.8,46.7,43.7,40.9,99,91,80,29.86,29.43,24,12,107,0.00
2014-12-20,49.6,46.8,45.1,47.2,45.7,43.9,99,96,83,30.14,29.86,23,10,23,0.00
2014-12-21,51.3,48.8,45.1,51.0,48.5,44.9,99,99,99,30.11,29.66,24,10,24,0.01
2014-12-22,52.5,51.3,50.5,52.3,51.1,50.3,99,99,99,29.66,29.57,23,12,28,0.00
2014-12-23,51.6,50.6,46.0,51.4,50.3,45.8,99,99,99,29.61,29.47,24,10,24,0.04
2014-12-24,47.3,45.5,43.7,46.1,42.9,38.8,99,91,79,29.93,29.55,23,10,23,0.00
2014-12-25,48.4,43.5,37.0,45.3,42.7,36.8,99,97,87,30.25,29.93,14,5,18,0.02
2014-12-26,39.7,37.4,35.1,39.5,37.2,34.8,99,99,99,30.24,29.63,8,2,8,0.44
2014-12-27,39.2,36.2,31.3,38.9,35.9,31.0,99,99,99,29.93,29.58,8,2,11,0.09
2014-12-28,46.2,35.7,28.2,45.4,35.1,28.0,99,98,83,30.45,29.93,5,1,6,0.00
2014-12-29,51.3,37.5,28.2,51.0,36.6,28.0,99,97,85,30.54,30.45,6,1,8,0.01
2014-12-30,45.9,39.5,33.3,44.3,39.1,33.0,99,98,88,30.50,30.26,7,2,8,0.00
2014-12-31,47.7,39.4,32.7,47.4,39.1,32.5,99,99,99,30.26,30.01,11,4,11,0.06
2015-1-1,53.4,50.9,46.9,53.2,50.7,46.7,99,99,98,30.02,29.59,21,8,21,0.26
2015-1-2,50.4,45.6,43.7,50.1,41.1,37.5,99,84,73,30.21,29.69,26,13,27,0.00